Time;durP1;ratioP1;P1;durP2;ratioP2;P2;SDS_P1;SDS_P2;PMS_P1;PMS_P2;Temp;Humidity;BMP_temperature;BMP_pressure;BME280_temperature;BME280_humidity;BME280_pressure;Samples;Min_cycle;Max_cycle;Signal;HPM_P1;HPM_P2
2021/11/02 00:00:02;;;;;;;4.87;4.30;;;9.40;99.90;;;;;;5046004;28;20441;-90
2021/11/02 00:02:29;;;;;;;5.97;4.37;;;9.40;99.90;;;;;;5055582;28;20440;-89
2021/11/02 00:04:56;;;;;;;3.93;3.63;;;9.50;99.90;;;;;;5058630;28;20491;-90
2021/11/02 00:07:24;;;;;;;6.77;4.27;;;9.50;99.90;;;;;;5057128;28;20452;-89
2021/11/02 00:09:58;;;;;;;5.90;4.87;;;9.50;99.90;;;;;;5055566;28;20440;-89
2021/11/02 00:12:25;;;;;;;5.90;4.50;;;9.50;99.90;;;;;;5048933;28;20444;-89
2021/11/02 00:14:53;;;;;;;5.47;4.80;;;9.50;99.90;;;;;;5057209;28;20447;-90
2021/11/02 00:17:23;;;;;;;5.57;5.07;;;9.60;99.90;;;;;;5103146;22;20540;-93
2021/11/02 00:19:53;;;;;;;4.80;4.30;;;9.60;99.90;;;;;;5096840;28;20453;-92
2021/11/02 00:22:21;;;;;;;9.37;6.00;;;9.60;99.90;;;;;;5099998;28;20439;-92
2021/11/02 00:25:08;;;;;;;5.30;4.23;;;9.60;99.90;;;;;;5107377;28;20501;-92
2021/11/02 00:27:38;;;;;;;5.70;5.20;;;9.60;99.90;;;;;;5096188;28;20497;-93
2021/11/02 00:30:09;;;;;;;5.33;4.83;;;9.60;99.90;;;;;;5083154;28;20454;-92
2021/11/02 00:32:36;;;;;;;5.33;4.20;;;9.70;99.90;;;;;;5078269;28;20454;-93
2021/11/02 00:35:04;;;;;;;4.47;4.00;;;9.70;99.90;;;;;;5077614;28;20462;-93
2021/11/02 00:37:31;;;;;;;5.00;4.60;;;9.70;99.90;;;;;;5085464;28;20467;-92
2021/11/02 00:40:00;;;;;;;7.60;6.90;;;9.70;99.90;;;;;;5098933;28;20442;-94
2021/11/02 00:42:32;;;;;;;7.70;5.53;;;9.70;99.90;;;;;;5097055;28;20450;-93
2021/11/02 00:45:03;;;;;;;5.67;5.10;;;9.60;99.90;;;;;;5098054;28;20899;-93
2021/11/02 00:47:29;;;;;;;5.43;4.93;;;9.60;99.90;;;;;;5092049;28;20558;-94
2021/11/02 00:49:56;;;;;;;7.20;5.43;;;9.70;99.90;;;;;;5080416;28;20436;-93
2021/11/02 00:52:23;;;;;;;6.70;5.47;;;9.70;99.90;;;;;;5090114;28;20450;-93
2021/11/02 00:54:50;;;;;;;6.57;5.90;;;9.70;99.90;;;;;;5100799;28;20438;-93
2021/11/02 00:57:18;;;;;;;7.00;6.30;;;9.70;99.90;;;;;;5094085;28;20494;-93
2021/11/02 00:59:45;;;;;;;6.80;5.97;;;9.70;99.90;;;;;;5096328;28;20423;-93
2021/11/02 01:02:12;;;;;;;6.67;6.07;;;9.70;99.90;;;;;;5105407;27;20439;-93
2021/11/02 01:04:39;;;;;;;8.27;5.37;;;9.70;99.90;;;;;;5112393;27;20478;-92
2021/11/02 01:07:07;;;;;;;8.00;6.23;;;9.70;99.90;;;;;;5102462;28;21029;-93
2021/11/02 01:09:34;;;;;;;9.10;5.73;;;9.70;99.90;;;;;;5096805;28;20449;-92
2021/11/02 01:12:01;;;;;;;6.27;5.67;;;9.70;99.90;;;;;;5079911;28;20448;-93
2021/11/02 01:14:29;;;;;;;8.93;6.00;;;9.60;99.90;;;;;;5074550;28;20448;-92
2021/11/02 01:16:56;;;;;;;9.93;7.13;;;9.70;99.90;;;;;;5071355;28;20478;-93
2021/11/02 01:19:24;;;;;;;7.30;5.80;;;9.70;99.90;;;;;;5084045;28;20482;-93
2021/11/02 01:21:51;;;;;;;5.90;5.37;;;9.70;99.90;;;;;;5076222;28;20471;-92
2021/11/02 01:24:17;;;;;;;7.00;5.40;;;9.70;99.90;;;;;;5076222;28;20818;-93
2021/11/02 01:26:45;;;;;;;7.87;6.23;;;9.70;99.90;;;;;;5076458;28;20536;-93
2021/11/02 01:29:12;;;;;;;5.80;5.30;;;9.70;99.90;;;;;;5080881;28;20458;-91
2021/11/02 01:31:40;;;;;;;5.83;5.23;;;9.70;99.90;;;;;;5079481;28;20462;-84
2021/11/02 01:34:07;;;;;;;7.87;5.00;;;9.70;99.90;;;;;;5082820;28;20450;-84
2021/11/02 01:36:33;;;;;;;7.67;6.87;;;9.70;99.90;;;;;;5084320;28;20459;-82
2021/11/02 01:39:01;;;;;;;6.03;5.47;;;9.70;99.90;;;;;;5086416;28;20446;-84
2021/11/02 01:41:31;;;;;;;6.37;4.87;;;9.70;99.90;;;;;;5081464;28;20469;-93
2021/11/02 01:43:59;;;;;;;6.30;5.10;;;9.70;99.90;;;;;;5081833;28;20453;-89
2021/11/02 01:46:28;;;;;;;5.43;4.87;;;9.70;99.90;;;;;;5091515;28;20486;-93
2021/11/02 01:48:58;;;;;;;5.57;4.77;;;9.80;99.90;;;;;;5101868;28;20466;-92
2021/11/02 01:51:27;;;;;;;4.90;4.50;;;9.80;99.90;;;;;;5092837;28;20447;-94
2021/11/02 01:53:54;;;;;;;10.77;4.97;;;9.80;99.90;;;;;;5112383;27;20471;-93
2021/11/02 01:56:22;;;;;;;4.67;4.27;;;9.80;99.90;;;;;;5118542;27;20439;-94
2021/11/02 01:58:52;;;;;;;9.60;4.30;;;9.80;99.90;;;;;;5118611;27;20441;-95
2021/11/02 02:01:25;;;;;;;4.73;4.33;;;9.80;99.90;;;;;;5114748;27;20450;-94
2021/11/02 02:04:02;;;;;;;8.07;5.30;;;9.80;99.90;;;;;;5095308;28;20956;-93
2021/11/02 02:06:39;;;;;;;7.10;5.57;;;9.70;99.90;;;;;;5078627;28;20495;-93
2021/11/02 02:09:12;;;;;;;8.53;6.17;;;9.70;99.90;;;;;;5093091;28;20453;-92
2021/11/02 02:11:47;;;;;;;6.43;5.80;;;9.70;99.90;;;;;;5099973;28;20450;-93
2021/11/02 02:14:19;;;;;;;7.20;6.50;;;9.70;99.90;;;;;;5096654;28;20454;-93
2021/11/02 02:16:47;;;;;;;8.33;6.73;;;9.70;99.90;;;;;;5096804;28;20842;-93
2021/11/02 02:19:36;;;;;;;7.70;6.87;;;9.80;99.90;;;;;;5076846;28;20505;-94
2021/11/02 02:22:12;;;;;;;7.67;6.43;;;9.80;99.90;;;;;;5092834;28;20813;-93
2021/11/02 02:24:51;;;;;;;9.60;7.80;;;9.80;99.90;;;;;;5089539;28;21309;-94
2021/11/02 02:27:27;;;;;;;8.73;7.50;;;9.80;99.90;;;;;;5056027;28;20483;-94
2021/11/02 02:29:56;;;;;;;7.53;6.70;;;9.80;99.90;;;;;;5055865;28;20429;-93
2021/11/02 02:32:26;;;;;;;7.13;6.40;;;9.80;99.90;;;;;;5065760;28;20451;-93
2021/11/02 02:34:58;;;;;;;8.20;6.30;;;9.80;99.90;;;;;;5088163;28;20503;-93
2021/11/02 02:37:28;;;;;;;7.20;6.37;;;9.80;99.90;;;;;;5099389;28;20481;-94
2021/11/02 02:40:05;;;;;;;7.60;6.30;;;9.80;99.90;;;;;;5077800;28;21224;-93
2021/11/02 02:42:33;;;;;;;12.70;7.40;;;9.70;99.90;;;;;;5080578;28;20447;-91
2021/11/02 02:45:02;;;;;;;10.67;6.53;;;9.70;99.90;;;;;;5083412;28;20471;-92
2021/11/02 02:47:30;;;;;;;7.87;7.10;;;9.70;99.90;;;;;;5077784;28;20458;-93
2021/11/02 02:50:16;;;;;;;8.27;6.60;;;9.70;99.90;;;;;;5077439;28;20443;-92
2021/11/02 02:52:45;;;;;;;7.33;6.17;;;9.70;99.90;;;;;;5096314;28;20506;-93
2021/11/02 02:55:15;;;;;;;12.60;6.90;;;9.70;99.90;;;;;;5079109;28;20523;-93
2021/11/02 02:57:45;;;;;;;8.70;6.67;;;9.70;99.90;;;;;;5085157;28;20470;-93
2021/11/02 03:00:14;;;;;;;7.27;5.40;;;9.70;99.90;;;;;;5075775;28;20438;-93
2021/11/02 03:02:43;;;;;;;7.10;5.57;;;9.60;99.90;;;;;;5079287;28;20447;-92
2021/11/02 03:05:13;;;;;;;5.17;4.03;;;9.50;99.90;;;;;;5097670;28;20479;-93
2021/11/02 03:07:47;;;;;;;4.57;3.63;;;9.50;99.90;;;;;;5113661;27;20528;-94
2021/11/02 03:10:14;;;;;;;5.97;5.37;;;9.50;99.90;;;;;;5098506;27;20493;-92
2021/11/02 03:12:47;;;;;;;7.57;4.03;;;9.50;99.90;;;;;;5090017;28;20430;-93
2021/11/02 03:15:40;;;;;;;4.80;3.13;;;9.50;99.90;;;;;;5097628;28;20424;-94
2021/11/02 03:18:19;;;;;;;4.37;3.83;;;9.60;99.90;;;;;;5092737;28;20486;-91
2021/11/02 03:48:49;;;;;;;2.30;1.40;;;9.70;99.90;;;;;;5085922;28;20478;-91
2021/11/02 03:51:31;;;;;;;4.80;1.60;;;9.50;99.90;;;;;;5093636;28;20440;-92
2021/11/02 03:56:59;;;;;;;2.87;1.40;;;9.30;99.90;;;;;;5094057;28;20438;-90
2021/11/02 04:25:02;;;;;;;2.30;1.97;;;9.10;99.90;;;;;;5107778;28;20427;-92
2021/11/02 04:30:40;;;;;;;3.33;2.40;;;8.90;99.90;;;;;;5080292;28;20447;-93
2021/11/02 05:07:22;;;;;;;3.40;3.10;;;8.30;99.90;;;;;;5091689;28;20466;-92
2021/11/02 05:10:23;;;;;;;5.50;2.50;;;8.30;99.90;;;;;;5085216;28;20448;-92
2021/11/02 05:49:19;;;;;;;5.63;2.97;;;7.70;99.90;;;;;;5086048;28;20430;-92
2021/11/02 05:54:57;;;;;;;5.83;3.33;;;7.60;99.90;;;;;;5090729;28;20419;-93
2021/11/02 06:28:35;;;;;;;7.80;3.60;;;7.60;99.90;;;;;;5067555;28;20427;-91
2021/11/02 06:31:07;;;;;;;6.07;3.47;;;7.70;99.90;;;;;;5074054;28;20463;-91
2021/11/02 06:33:45;;;;;;;4.33;3.13;;;7.60;99.90;;;;;;5072181;28;20458;-91
2021/11/02 06:36:34;;;;;;;7.53;3.70;;;7.60;99.90;;;;;;5075762;28;20483;-92
2021/11/02 06:45:03;;;;;;;8.17;3.90;;;7.60;99.90;;;;;;5074173;28;20486;-92
2021/11/02 06:47:51;;;;;;;11.00;4.63;;;7.60;99.90;;;;;;5075985;28;20493;-91
2021/11/02 06:50:45;;;;;;;5.30;3.87;;;7.70;99.90;;;;;;5077060;28;20962;-91
2021/11/02 06:56:41;;;;;;;6.23;4.70;;;7.80;99.90;;;;;;5092333;28;20437;-92
2021/11/02 07:17:05;;;;;;;10.37;4.40;;;8.10;99.90;;;;;;5015870;28;20426;-92
2021/11/02 07:19:34;;;;;;;7.80;4.30;;;8.20;99.90;;;;;;5070865;28;20497;-91
2021/11/02 07:22:14;;;;;;;10.53;5.30;;;8.30;99.90;;;;;;5087455;28;20486;-92
2021/11/02 07:24:49;;;;;;;9.13;6.30;;;8.30;99.90;;;;;;5077734;28;20542;-92
2021/11/02 07:27:32;;;;;;;7.47;5.10;;;8.40;99.90;;;;;;5075879;28;20496;-92
2021/11/02 08:45:44;;;;;;;6.50;3.90;;;13.40;99.90;;;;;;5085452;28;21057;-89
2021/11/02 08:48:13;;;;;;;8.03;4.43;;;13.00;99.90;;;;;;5079256;28;20534;-89
2021/11/02 08:50:42;;;;;;;9.80;4.67;;;12.70;99.90;;;;;;5081547;28;21006;-89
2021/11/02 08:53:13;;;;;;;7.87;4.70;;;12.50;99.90;;;;;;5080400;28;20445;-89
2021/11/02 08:55:42;;;;;;;6.23;3.93;;;12.50;99.90;;;;;;5082076;28;20459;-90
2021/11/02 08:58:09;;;;;;;4.80;3.87;;;12.20;99.90;;;;;;5078388;28;20620;-89
2021/11/02 09:00:37;;;;;;;5.93;3.87;;;12.20;99.90;;;;;;5080475;28;20515;-89
2021/11/02 09:03:11;;;;;;;6.50;4.77;;;12.00;99.90;;;;;;5082449;28;20943;-88
2021/11/02 09:05:39;;;;;;;6.53;4.23;;;11.80;99.90;;;;;;5080478;28;20451;-88
2021/11/02 09:08:12;;;;;;;7.13;4.50;;;11.80;99.90;;;;;;5082312;28;20448;-89
2021/11/02 09:10:41;;;;;;;7.50;3.57;;;11.80;99.90;;;;;;5079800;28;20917;-90
2021/11/02 09:13:09;;;;;;;4.60;3.10;;;11.70;99.90;;;;;;5064628;28;20486;-91
2021/11/02 09:15:38;;;;;;;4.30;2.90;;;11.60;99.90;;;;;;5066339;28;20518;-88
2021/11/02 09:18:06;;;;;;;3.73;3.00;;;11.60;99.90;;;;;;5071434;28;20448;-90
2021/11/02 09:20:34;;;;;;;4.73;2.60;;;11.50;99.90;;;;;;5083251;28;20479;-90
2021/11/02 09:23:03;;;;;;;7.77;2.73;;;11.50;99.90;;;;;;5081010;28;20475;-89
2021/11/02 09:25:32;;;;;;;3.10;2.27;;;11.30;99.90;;;;;;5072084;28;20463;-89
2021/11/02 09:28:00;;;;;;;4.80;2.40;;;11.20;99.90;;;;;;5075264;28;20450;-88
2021/11/02 09:30:28;;;;;;;2.43;1.80;;;11.00;99.90;;;;;;5087733;28;20534;-90
2021/11/02 09:32:56;;;;;;;4.47;3.30;;;10.90;99.90;;;;;;5085746;28;20451;-89
2021/11/02 09:35:27;;;;;;;5.73;2.20;;;10.70;99.90;;;;;;5066770;28;20431;-88
2021/11/02 09:38:05;;;;;;;7.07;1.90;;;10.60;99.90;;;;;;5085260;28;20420;-89
2021/11/02 09:41:08;;;;;;;4.40;2.47;;;10.50;99.90;;;;;;5080923;28;20459;-88
2021/11/02 09:44:06;;;;;;;3.80;2.17;;;10.40;99.90;;;;;;5078467;28;20453;-89
2021/11/02 09:47:22;;;;;;;4.10;2.27;;;10.30;99.90;;;;;;5057937;28;20964;-88
2021/11/02 09:50:21;;;;;;;2.93;1.80;;;10.20;99.90;;;;;;5034084;28;20495;-89
2021/11/02 09:53:22;;;;;;;3.17;1.57;;;10.20;99.90;;;;;;5091039;28;20512;-88
2021/11/02 09:56:02;;;;;;;5.60;2.50;;;10.20;99.90;;;;;;5074310;28;20478;-89
2021/11/02 09:58:58;;;;;;;2.60;1.57;;;10.20;99.90;;;;;;5082633;28;20444;-88
2021/11/02 10:01:32;;;;;;;7.03;1.80;;;10.10;99.90;;;;;;5074084;28;20451;-89
2021/11/02 10:04:31;;;;;;;3.33;1.47;;;10.10;99.90;;;;;;5093579;28;20443;-88
2021/11/02 10:07:21;;;;;;;3.03;1.73;;;10.20;99.90;;;;;;5066185;28;20918;-88
2021/11/02 10:10:00;;;;;;;2.10;1.73;;;10.30;99.90;;;;;;5081680;28;20459;-90
2021/11/02 10:12:41;;;;;;;3.63;2.40;;;10.40;99.90;;;;;;5062760;28;20448;-90
2021/11/02 10:15:33;;;;;;;4.17;2.10;;;10.50;99.90;;;;;;5064790;28;20460;-89
2021/11/02 10:18:27;;;;;;;5.00;1.77;;;10.50;99.90;;;;;;5070760;28;20540;-90
2021/11/02 10:21:18;;;;;;;3.47;1.80;;;10.70;99.90;;;;;;5073656;28;20451;-89
2021/11/02 10:24:23;;;;;;;5.23;1.70;;;10.80;99.90;;;;;;5071579;28;20428;-90
2021/11/02 10:27:12;;;;;;;12.80;4.40;;;10.80;99.90;;;;;;5063748;28;20484;-88
2021/11/02 10:30:18;;;;;;;7.87;3.30;;;10.70;99.90;;;;;;5061646;28;20479;-89
2021/11/02 10:32:47;;;;;;;3.53;2.00;;;10.60;99.90;;;;;;5048771;28;20443;-90
2021/11/02 10:35:35;;;;;;;2.37;2.03;;;10.60;99.90;;;;;;5069104;28;20452;-89
2021/11/02 10:38:10;;;;;;;4.97;2.00;;;10.70;99.90;;;;;;5059868;28;20453;-91
2021/11/02 10:40:43;;;;;;;4.40;1.73;;;10.70;99.90;;;;;;5058650;28;20500;-90
2021/11/02 10:44:01;;;;;;;2.87;2.40;;;10.70;99.90;;;;;;5057095;28;20470;-89
2021/11/02 10:46:34;;;;;;;3.10;1.80;;;10.80;99.90;;;;;;5070241;28;20477;-89
2021/11/02 10:49:09;;;;;;;3.13;1.87;;;10.80;99.90;;;;;;5083099;28;20503;-90
2021/11/02 10:51:39;;;;;;;4.67;1.87;;;10.80;99.90;;;;;;5080070;28;20438;-88
2021/11/02 10:54:53;;;;;;;4.63;1.70;;;10.90;99.90;;;;;;5091635;28;20513;-88
2021/11/02 10:57:52;;;;;;;3.70;1.50;;;10.80;99.90;;;;;;5078782;28;20443;-88
2021/11/02 11:00:21;;;;;;;4.30;2.17;;;10.80;99.90;;;;;;5068208;28;20463;-87
2021/11/02 11:02:54;;;;;;;3.70;1.63;;;10.80;99.90;;;;;;5082341;28;20566;-88
2021/11/02 11:05:25;;;;;;;3.10;1.47;;;10.80;99.90;;;;;;5091337;28;20439;-89
2021/11/02 11:07:53;;;;;;;2.97;1.83;;;10.80;99.90;;;;;;5072557;28;20476;-88
2021/11/02 11:10:24;;;;;;;3.13;1.80;;;10.90;99.90;;;;;;5067108;28;20477;-89
2021/11/02 11:12:54;;;;;;;4.43;1.90;;;10.90;99.90;;;;;;5076622;28;20440;-89
2021/11/02 11:15:21;;;;;;;5.30;2.37;;;11.00;99.90;;;;;;5081727;28;20451;-90
2021/11/02 11:17:53;;;;;;;3.70;2.30;;;11.10;99.90;;;;;;5070340;28;20440;-91
2021/11/02 11:20:21;;;;;;;3.07;1.67;;;11.10;99.90;;;;;;5081075;28;20481;-89
2021/11/02 11:22:50;;;;;;;4.00;2.70;;;11.00;99.90;;;;;;5082693;28;20456;-89
2021/11/02 11:25:20;;;;;;;3.53;2.07;;;11.00;99.90;;;;;;5080466;28;20458;-89
2021/11/02 11:27:55;;;;;;;2.40;1.90;;;11.10;99.90;;;;;;5070988;28;20566;-88
2021/11/02 11:30:23;;;;;;;3.27;2.13;;;11.20;99.90;;;;;;5066222;28;20505;-88
2021/11/02 11:32:52;;;;;;;4.23;2.47;;;11.30;99.90;;;;;;5083319;28;20447;-89
2021/11/02 11:35:20;;;;;;;6.20;1.83;;;11.30;99.90;;;;;;5078722;28;20449;-86
2021/11/02 11:37:48;;;;;;;3.63;2.27;;;11.50;99.90;;;;;;5059593;28;20778;-89
2021/11/02 11:40:18;;;;;;;1.93;1.73;;;11.50;99.90;;;;;;5086194;28;20542;-88
2021/11/02 11:42:47;;;;;;;2.20;2.00;;;11.80;99.90;;;;;;5096529;28;20446;-89
2021/11/02 11:45:16;;;;;;;3.10;2.10;;;11.90;99.90;;;;;;5061686;28;20469;-89
2021/11/02 11:47:45;;;;;;;1.60;1.50;;;12.10;99.90;;;;;;5066015;28;21056;-89
2021/11/02 11:50:19;;;;;;;4.73;1.57;;;12.10;99.90;;;;;;5056690;28;20463;-89
2021/11/02 11:52:49;;;;;;;1.63;1.53;;;12.00;99.90;;;;;;5068785;28;20484;-89
2021/11/02 11:55:22;;;;;;;2.13;1.63;;;12.20;99.90;;;;;;5066951;28;20970;-89
2021/11/02 11:58:02;;;;;;;3.13;1.60;;;12.20;99.90;;;;;;5075091;28;20452;-89
2021/11/02 12:00:29;;;;;;;3.07;1.60;;;12.40;99.90;;;;;;5076155;28;20864;-89
2021/11/02 12:03:04;;;;;;;1.70;1.40;;;12.50;99.90;;;;;;5077432;28;20455;-89
2021/11/02 12:05:33;;;;;;;1.90;1.60;;;12.70;99.90;;;;;;5065814;28;20452;-89
2021/11/02 12:08:07;;;;;;;1.50;1.40;;;13.00;99.90;;;;;;5069878;28;20570;-88
2021/11/02 12:10:35;;;;;;;3.33;1.67;;;13.10;99.90;;;;;;5074665;28;20570;-89
2021/11/02 12:13:06;;;;;;;2.60;1.20;;;13.10;99.90;;;;;;5074171;28;20451;-88
2021/11/02 12:15:46;;;;;;;1.70;1.50;;;13.10;99.90;;;;;;5090286;28;20435;-88
2021/11/02 12:18:17;;;;;;;2.50;1.47;;;13.00;99.90;;;;;;5092427;28;20452;-90
2021/11/02 12:23:39;;;;;;;5.23;1.03;;;12.40;99.90;;;;;;5084116;28;20449;-91
2021/11/02 12:26:07;;;;;;;1.30;1.03;;;12.10;99.90;;;;;;5091844;28;20454;-90
2021/11/02 12:28:41;;;;;;;0.90;0.80;;;12.00;99.90;;;;;;5088412;28;20474;-91
2021/11/02 12:31:18;;;;;;;1.63;0.90;;;12.00;99.90;;;;;;5088448;28;20465;-91
2021/11/02 12:33:49;;;;;;;1.43;0.93;;;11.90;99.90;;;;;;5086075;28;20442;-90
2021/11/02 12:36:21;;;;;;;2.00;0.90;;;11.80;99.90;;;;;;5090174;28;20483;-88
2021/11/02 12:38:52;;;;;;;2.10;1.00;;;11.80;99.90;;;;;;5085309;28;20439;-87
2021/11/02 12:41:27;;;;;;;1.47;0.97;;;11.80;99.90;;;;;;5089484;28;20471;-90
2021/11/02 12:44:04;;;;;;;1.33;0.60;;;11.80;99.90;;;;;;5085602;28;20529;-89
2021/11/02 12:46:32;;;;;;;1.97;1.10;;;12.00;99.90;;;;;;5090936;28;20439;-91
2021/11/02 12:49:01;;;;;;;1.40;1.10;;;12.00;99.90;;;;;;5084766;28;20455;-92
2021/11/02 12:51:35;;;;;;;2.87;0.90;;;12.10;99.90;;;;;;5083931;28;21006;-91
2021/11/02 12:54:07;;;;;;;2.10;1.10;;;12.00;99.90;;;;;;5086546;28;20454;-91
2021/11/02 12:56:38;;;;;;;0.80;0.80;;;12.00;99.90;;;;;;5086855;28;20450;-90
2021/11/02 12:59:18;;;;;;;1.53;0.70;;;12.20;99.90;;;;;;5072684;28;20450;-91
2021/11/02 13:01:47;;;;;;;2.03;1.37;;;12.20;99.90;;;;;;5083880;28;20450;-91
2021/11/02 13:04:19;;;;;;;2.00;0.90;;;12.30;99.90;;;;;;5090609;28;20443;-91
2021/11/02 13:06:50;;;;;;;2.40;1.30;;;12.60;99.90;;;;;;5083984;28;20444;-90
2021/11/02 13:09:22;;;;;;;1.10;1.00;;;12.90;99.90;;;;;;5084303;28;20454;-91
2021/11/02 13:12:02;;;;;;;1.40;0.80;;;13.60;99.90;;;;;;5080869;28;20456;-89
2021/11/02 13:14:37;;;;;;;1.10;0.77;;;14.20;99.90;;;;;;5077502;28;20915;-92
2021/11/02 13:17:07;;;;;;;3.60;1.13;;;14.40;99.90;;;;;;5079498;28;20450;-90
2021/11/02 13:19:36;;;;;;;0.80;0.80;;;14.70;99.90;;;;;;5084110;28;20458;-91
2021/11/02 13:22:13;;;;;;;3.00;1.90;;;14.60;99.90;;;;;;5098183;28;20438;-91
2021/11/02 13:24:42;;;;;;;1.87;1.07;;;14.50;99.90;;;;;;5081014;28;20450;-90
2021/11/02 13:27:12;;;;;;;2.70;1.73;;;14.10;99.90;;;;;;5079572;28;20496;-92
2021/11/02 13:29:39;;;;;;;2.73;0.90;;;13.70;99.90;;;;;;5080483;28;20466;-91
2021/11/02 13:32:07;;;;;;;1.57;0.80;;;13.20;99.90;;;;;;5080109;28;20441;-91
2021/11/02 13:34:37;;;;;;;1.17;0.80;;;13.00;99.90;;;;;;5090543;28;20462;-91
2021/11/02 13:37:10;;;;;;;3.83;1.50;;;12.70;99.90;;;;;;5081276;28;20444;-91
2021/11/02 13:39:58;;;;;;;1.30;0.90;;;12.60;99.90;;;;;;5098732;28;20487;-91
2021/11/02 13:42:47;;;;;;;0.70;0.60;;;12.40;99.90;;;;;;5084237;28;21012;-90
2021/11/02 13:45:19;;;;;;;0.90;0.60;;;12.20;99.90;;;;;;5079621;28;20477;-90
2021/11/02 13:47:46;;;;;;;1.10;0.60;;;12.10;99.90;;;;;;5077135;28;20543;-90
2021/11/02 13:50:14;;;;;;;0.70;0.43;;;12.10;99.90;;;;;;5087593;28;20515;-91
2021/11/02 13:52:41;;;;;;;2.60;0.80;;;12.00;99.90;;;;;;5097557;28;20430;-90
2021/11/02 13:55:11;;;;;;;0.90;0.60;;;12.00;99.90;;;;;;5089100;28;20896;-90
2021/11/02 13:57:38;;;;;;;4.10;1.13;;;12.00;99.90;;;;;;5094184;28;20423;-90
2021/11/02 14:00:06;;;;;;;0.83;0.63;;;12.00;99.90;;;;;;5088056;28;20474;-90
2021/11/02 14:02:37;;;;;;;1.00;0.63;;;12.00;99.90;;;;;;5088810;28;20432;-90
2021/11/02 14:05:06;;;;;;;1.30;0.70;;;12.00;99.90;;;;;;5091844;28;20408;-90
2021/11/02 14:07:35;;;;;;;1.27;0.60;;;12.00;99.90;;;;;;5093360;28;20470;-90
2021/11/02 14:10:07;;;;;;;0.80;0.60;;;11.90;99.90;;;;;;5089522;28;20487;-90
2021/11/02 14:12:45;;;;;;;0.97;0.70;;;11.90;99.90;;;;;;5083732;28;20493;-91
2021/11/02 14:15:16;;;;;;;2.10;0.80;;;12.00;99.90;;;;;;5086747;28;20506;-91
2021/11/02 14:17:46;;;;;;;0.83;0.50;;;12.80;99.90;;;;;;5084811;28;20471;-89
2021/11/02 14:20:35;;;;;;;1.10;0.60;;;13.10;99.90;;;;;;5097567;28;20474;-90
2021/11/02 14:23:03;;;;;;;0.93;0.50;;;13.20;99.90;;;;;;5102992;28;20500;-90
2021/11/02 14:25:33;;;;;;;1.27;0.80;;;13.20;99.90;;;;;;5100073;28;20450;-91
2021/11/02 14:28:05;;;;;;;1.57;0.60;;;13.20;99.90;;;;;;5092424;28;20929;-91
2021/11/02 14:30:43;;;;;;;0.90;0.70;;;13.10;99.90;;;;;;5086646;28;20475;-91
2021/11/02 14:33:19;;;;;;;2.93;0.43;;;12.70;99.90;;;;;;5085453;28;20664;-91
2021/11/02 14:35:50;;;;;;;0.90;0.57;;;12.60;99.90;;;;;;5084132;28;20482;-90
2021/11/02 14:38:20;;;;;;;1.83;0.63;;;12.50;99.90;;;;;;5084503;28;20450;-90
2021/11/02 14:40:48;;;;;;;0.90;0.70;;;12.50;99.90;;;;;;5081311;28;20487;-90
2021/11/02 14:43:23;;;;;;;1.00;0.87;;;12.30;99.90;;;;;;5078470;28;20448;-90
2021/11/02 14:45:56;;;;;;;0.93;0.80;;;12.30;99.90;;;;;;5077239;28;20455;-90
2021/11/02 14:48:52;;;;;;;0.83;0.60;;;12.30;99.90;;;;;;5085056;28;20451;-92
2021/11/02 14:54:38;;;;;;;0.70;0.47;;;12.30;99.90;;;;;;5080002;28;20444;-91
2021/11/02 14:57:57;;;;;;;1.40;0.80;;;12.20;99.90;;;;;;4975777;28;20478;-92
2021/11/02 15:00:46;;;;;;;4.87;1.00;;;12.10;99.90;;;;;;5066058;28;20531;-90
2021/11/02 15:03:33;;;;;;;3.33;1.10;;;12.00;99.90;;;;;;5070589;28;20441;-90
2021/11/02 15:06:14;;;;;;;1.00;0.67;;;12.00;99.90;;;;;;5064676;28;20441;-91
2021/11/02 15:08:47;;;;;;;0.87;0.50;;;12.00;99.90;;;;;;5073128;28;20482;-91
2021/11/02 15:11:31;;;;;;;5.90;1.10;;;11.90;99.90;;;;;;5078642;28;20475;-91
2021/11/02 15:14:04;;;;;;;1.17;0.80;;;11.90;99.90;;;;;;5080144;28;20459;-90
2021/11/02 15:16:47;;;;;;;1.70;0.63;;;11.90;99.90;;;;;;5079638;28;20459;-90
2021/11/02 15:19:15;;;;;;;1.50;0.60;;;11.90;99.90;;;;;;5078799;28;20471;-90
2021/11/02 15:21:44;;;;;;;1.60;0.60;;;11.80;99.90;;;;;;5096081;28;20466;-86
2021/11/02 15:24:29;;;;;;;0.83;0.80;;;11.70;99.90;;;;;;5093796;28;20477;-86
2021/11/02 15:29:49;;;;;;;1.23;0.60;;;11.40;99.90;;;;;;5079320;28;20999;-86
2021/11/02 15:32:21;;;;;;;1.87;0.90;;;11.30;99.90;;;;;;5081548;28;20503;-86
2021/11/02 15:34:50;;;;;;;2.80;0.80;;;11.20;99.90;;;;;;5059359;28;20448;-87
2021/11/02 15:37:20;;;;;;;5.83;0.97;;;11.20;99.90;;;;;;5082106;28;20426;-86
2021/11/02 15:42:30;;;;;;;1.30;0.60;;;11.20;99.90;;;;;;4941153;26;20475;-87
2021/11/02 15:45:06;;;;;;;1.00;0.67;;;11.10;99.90;;;;;;5041868;28;20436;-84
2021/11/02 15:47:39;;;;;;;0.90;0.70;;;11.00;99.90;;;;;;5071961;28;20427;-85
2021/11/02 15:50:10;;;;;;;0.70;0.70;;;10.90;99.90;;;;;;5039911;28;20536;-86
2021/11/02 15:52:39;;;;;;;1.20;0.50;;;10.90;99.90;;;;;;5048507;28;20452;-87
2021/11/02 15:55:10;;;;;;;1.10;1.00;;;10.80;99.90;;;;;;5036667;28;20515;-85
2021/11/02 15:57:39;;;;;;;1.00;0.90;;;10.70;99.90;;;;;;5037737;28;20442;-85
2021/11/02 16:00:08;;;;;;;1.77;0.80;;;10.60;99.90;;;;;;5024873;28;20893;-85
2021/11/02 16:02:37;;;;;;;1.00;0.83;;;10.60;99.90;;;;;;5032500;28;20455;-85
2021/11/02 16:05:06;;;;;;;1.77;1.03;;;10.50;99.90;;;;;;5033525;28;20445;-85
2021/11/02 16:07:35;;;;;;;1.10;0.90;;;10.50;99.90;;;;;;5035048;28;20942;-84
2021/11/02 16:10:05;;;;;;;0.90;0.77;;;10.50;99.90;;;;;;5035707;28;20493;-88
2021/11/02 16:12:35;;;;;;;1.17;0.73;;;10.50;99.90;;;;;;5036470;28;20503;-87
2021/11/02 16:15:13;;;;;;;3.03;1.40;;;10.50;99.90;;;;;;5042749;28;20926;-88
2021/11/02 16:17:45;;;;;;;1.10;0.80;;;10.40;99.90;;;;;;5052746;28;21014;-88
2021/11/02 16:20:19;;;;;;;0.90;0.80;;;10.40;99.90;;;;;;5059487;28;20456;-88
2021/11/02 16:22:53;;;;;;;1.60;0.90;;;10.30;99.90;;;;;;5043194;28;20499;-86
2021/11/02 16:25:20;;;;;;;1.73;0.80;;;10.30;99.90;;;;;;5047247;28;20447;-90
2021/11/02 16:28:02;;;;;;;2.30;1.10;;;10.40;99.90;;;;;;5044321;28;20437;-89
2021/11/02 16:30:32;;;;;;;2.00;1.00;;;10.40;99.90;;;;;;5048014;28;20499;-90
2021/11/02 16:33:03;;;;;;;2.07;1.43;;;10.40;99.90;;;;;;5043721;28;20444;-90
2021/11/02 16:35:38;;;;;;;2.83;2.00;;;10.40;99.90;;;;;;5024407;28;20477;-91
2021/11/02 16:38:26;;;;;;;2.00;1.80;;;10.40;99.90;;;;;;5039558;28;20453;-89
2021/11/02 17:03:58;;;;;;;1.83;1.60;;;10.40;99.90;;;;;;4970907;28;20546;-89
2021/11/02 17:06:31;;;;;;;2.53;1.70;;;10.30;99.90;;;;;;4971183;28;20578;-86
2021/11/02 17:09:14;;;;;;;2.70;1.70;;;10.30;99.90;;;;;;4937184;29;20512;-86
2021/11/02 17:11:58;;;;;;;1.53;1.13;;;10.20;99.90;;;;;;5053182;28;20509;-85
2021/11/02 17:14:26;;;;;;;2.20;1.30;;;10.20;99.90;;;;;;5052481;28;20448;-86
2021/11/02 17:16:56;;;;;;;1.73;1.40;;;10.10;99.90;;;;;;5045664;28;20460;-86
2021/11/02 17:19:25;;;;;;;2.77;1.40;;;10.20;99.90;;;;;;5047895;28;20449;-86
2021/11/02 17:21:55;;;;;;;1.90;1.60;;;10.20;99.90;;;;;;5046914;28;20434;-85
2021/11/02 17:24:23;;;;;;;2.20;1.20;;;10.20;99.90;;;;;;5018293;28;20431;-87
2021/11/02 17:26:50;;;;;;;2.20;1.50;;;10.20;99.90;;;;;;5017872;28;20442;-87
2021/11/02 17:29:17;;;;;;;1.97;1.70;;;10.10;99.90;;;;;;5036304;28;20480;-87
2021/11/02 17:31:46;;;;;;;2.30;1.80;;;10.00;99.90;;;;;;5040322;28;20460;-85
2021/11/02 17:34:23;;;;;;;2.93;1.80;;;9.90;99.90;;;;;;5056137;28;20456;-86
2021/11/02 17:37:06;;;;;;;2.30;2.10;;;9.80;99.90;;;;;;5037732;28;20453;-87
2021/11/02 17:39:36;;;;;;;2.23;1.57;;;9.70;99.90;;;;;;5025685;28;20456;-84
2021/11/02 17:42:04;;;;;;;1.13;1.03;;;9.70;99.90;;;;;;5037788;28;20477;-85
2021/11/02 17:44:32;;;;;;;1.60;1.30;;;9.70;99.90;;;;;;5056509;28;20456;-87
2021/11/02 17:47:00;;;;;;;3.50;1.77;;;9.60;99.90;;;;;;5037458;28;20453;-86
2021/11/02 17:49:30;;;;;;;1.80;1.30;;;9.60;99.90;;;;;;5035720;28;21013;-87
2021/11/02 17:52:04;;;;;;;1.80;1.33;;;9.50;99.90;;;;;;5038359;28;20453;-89
2021/11/02 17:54:32;;;;;;;2.03;1.43;;;9.50;99.90;;;;;;5037046;28;20526;-89
2021/11/02 17:56:59;;;;;;;1.60;1.50;;;9.40;99.90;;;;;;5036952;28;20600;-89
2021/11/02 18:06:38;;;;;;;2.80;1.63;;;9.30;99.90;;;;;;4882805;29;20551;-91
2021/11/02 18:32:42;;;;;;;;;;;;;;;;;;;;;
2021/11/02 18:35:59;;;;;;;2.23;1.83;;;9.50;99.90;;;;;;5081315;28;20427;-89
2021/11/02 18:49:35;;;;;;;3.60;1.40;;;9.20;99.90;;;;;;5290947;22;20503;-92
2021/11/02 18:52:09;;;;;;;2.20;2.00;;;9.10;99.90;;;;;;5049355;28;20465;-91
2021/11/02 18:54:41;;;;;;;4.60;2.47;;;9.00;99.90;;;;;;5044270;28;20446;-91
2021/11/02 18:57:21;;;;;;;2.13;1.87;;;8.90;99.90;;;;;;5037293;28;20453;-92
2021/11/02 19:00:12;;;;;;;3.60;1.93;;;8.80;99.90;;;;;;5036542;28;20478;-92
2021/11/02 19:02:40;;;;;;;2.47;2.20;;;8.80;99.90;;;;;;5035663;28;20464;-92
2021/11/02 19:05:30;;;;;;;3.00;2.13;;;8.80;99.90;;;;;;5038241;28;20520;-92
2021/11/02 19:08:15;;;;;;;5.20;3.00;;;8.80;99.90;;;;;;5041183;28;20950;-92
2021/11/02 19:10:55;;;;;;;5.50;3.63;;;8.70;99.90;;;;;;5040024;28;20475;-92